sensor_id;sensor_type;location;lat;lon;timestamp;pressure;altitude;pressure_sealevel;temperature
61390;BMP280;47260;48.274;19.814;2023-03-03T00:00:36;99522.97;;;-0.83
61390;BMP280;47260;48.274;19.814;2023-03-03T00:02:06;99513.63;;;-0.88
61390;BMP280;47260;48.274;19.814;2023-03-03T00:03:38;99514.81;;;-0.92
61390;BMP280;47260;48.274;19.814;2023-03-03T00:05:09;99523.53;;;-0.95
61390;BMP280;47260;48.274;19.814;2023-03-03T00:06:45;99511.91;;;-0.98
61390;BMP280;47260;48.274;19.814;2023-03-03T00:08:17;99512.63;;;-0.97
61390;BMP280;47260;48.274;19.814;2023-03-03T00:09:48;99514.25;;;-1.03
61390;BMP280;47260;48.274;19.814;2023-03-03T00:11:20;99507.91;;;-1.06
61390;BMP280;47260;48.274;19.814;2023-03-03T00:12:51;99506.06;;;-1.09
61390;BMP280;47260;48.274;19.814;2023-03-03T00:14:23;99507.66;;;-1.15
61390;BMP280;47260;48.274;19.814;2023-03-03T00:16:04;99516.72;;;-1.16
61390;BMP280;47260;48.274;19.814;2023-03-03T00:17:41;99513.00;;;-1.18
61390;BMP280;47260;48.274;19.814;2023-03-03T00:19:12;99508.09;;;-1.20
61390;BMP280;47260;48.274;19.814;2023-03-03T00:20:46;99510.34;;;-1.18
61390;BMP280;47260;48.274;19.814;2023-03-03T00:22:21;99515.28;;;-1.20
61390;BMP280;47260;48.274;19.814;2023-03-03T00:23:58;99516.75;;;-1.19
61390;BMP280;47260;48.274;19.814;2023-03-03T00:25:33;99520.25;;;-1.26
61390;BMP280;47260;48.274;19.814;2023-03-03T00:27:09;99514.69;;;-1.32
61390;BMP280;47260;48.274;19.814;2023-03-03T00:28:47;99506.47;;;-1.37
61390;BMP280;47260;48.274;19.814;2023-03-03T00:30:19;99505.66;;;-1.31
61390;BMP280;47260;48.274;19.814;2023-03-03T00:31:53;99503.75;;;-1.30
61390;BMP280;47260;48.274;19.814;2023-03-03T00:33:25;99504.16;;;-1.32
61390;BMP280;47260;48.274;19.814;2023-03-03T00:35:00;99509.81;;;-1.33
61390;BMP280;47260;48.274;19.814;2023-03-03T00:36:35;99508.31;;;-1.34
61390;BMP280;47260;48.274;19.814;2023-03-03T00:38:11;99504.53;;;-1.33
61390;BMP280;47260;48.274;19.814;2023-03-03T00:39:44;99512.47;;;-1.37
61390;BMP280;47260;48.274;19.814;2023-03-03T00:41:18;99509.09;;;-1.37
61390;BMP280;47260;48.274;19.814;2023-03-03T00:42:52;99515.53;;;-1.38
61390;BMP280;47260;48.274;19.814;2023-03-03T00:44:39;99507.66;;;-1.42
61390;BMP280;47260;48.274;19.814;2023-03-03T00:46:13;99510.69;;;-1.43
61390;BMP280;47260;48.274;19.814;2023-03-03T00:47:46;99508.41;;;-1.41
61390;BMP280;47260;48.274;19.814;2023-03-03T00:49:18;99508.75;;;-1.39
61390;BMP280;47260;48.274;19.814;2023-03-03T00:50:54;99508.34;;;-1.38
61390;BMP280;47260;48.274;19.814;2023-03-03T00:52:26;99504.97;;;-1.38
61390;BMP280;47260;48.274;19.814;2023-03-03T00:53:59;99507.22;;;-1.37
61390;BMP280;47260;48.274;19.814;2023-03-03T00:55:30;99499.66;;;-1.35
61390;BMP280;47260;48.274;19.814;2023-03-03T00:57:01;99497.38;;;-1.33
61390;BMP280;47260;48.274;19.814;2023-03-03T00:58:33;99493.97;;;-1.30
61390;BMP280;47260;48.274;19.814;2023-03-03T01:00:05;99498.44;;;-1.27
61390;BMP280;47260;48.274;19.814;2023-03-03T01:01:36;99497.31;;;-1.25
61390;BMP280;47260;48.274;19.814;2023-03-03T01:03:09;99487.56;;;-1.29
61390;BMP280;47260;48.274;19.814;2023-03-03T01:04:40;99495.84;;;-1.30
61390;BMP280;47260;48.274;19.814;2023-03-03T01:06:12;99491.31;;;-1.30
61390;BMP280;47260;48.274;19.814;2023-03-03T01:07:44;99489.44;;;-1.29
61390;BMP280;47260;48.274;19.814;2023-03-03T01:09:16;99483.84;;;-1.31
61390;BMP280;47260;48.274;19.814;2023-03-03T01:10:49;99489.19;;;-1.38
61390;BMP280;47260;48.274;19.814;2023-03-03T01:12:20;99483.28;;;-1.46
61390;BMP280;47260;48.274;19.814;2023-03-03T01:13:51;99492.09;;;-1.56
61390;BMP280;47260;48.274;19.814;2023-03-03T01:15:23;99487.97;;;-1.60
61390;BMP280;47260;48.274;19.814;2023-03-03T01:16:54;99478.28;;;-1.63
61390;BMP280;47260;48.274;19.814;2023-03-03T01:18:25;99483.53;;;-1.63
61390;BMP280;47260;48.274;19.814;2023-03-03T01:19:56;99470.75;;;-1.65
61390;BMP280;47260;48.274;19.814;2023-03-03T01:21:27;99467.03;;;-1.67
61390;BMP280;47260;48.274;19.814;2023-03-03T01:22:59;99467.81;;;-1.70
61390;BMP280;47260;48.274;19.814;2023-03-03T01:24:32;99466.75;;;-1.73
61390;BMP280;47260;48.274;19.814;2023-03-03T01:26:04;99474.28;;;-1.75
61390;BMP280;47260;48.274;19.814;2023-03-03T01:27:36;99475.03;;;-1.74
61390;BMP280;47260;48.274;19.814;2023-03-03T01:29:07;99473.84;;;-1.70
61390;BMP280;47260;48.274;19.814;2023-03-03T01:30:39;99472.41;;;-1.74
61390;BMP280;47260;48.274;19.814;2023-03-03T01:32:10;99471.66;;;-1.75
61390;BMP280;47260;48.274;19.814;2023-03-03T01:33:42;99475.44;;;-1.76
61390;BMP280;47260;48.274;19.814;2023-03-03T01:35:13;99473.19;;;-1.77
61390;BMP280;47260;48.274;19.814;2023-03-03T01:36:44;99476.91;;;-1.75
61390;BMP280;47260;48.274;19.814;2023-03-03T01:38:15;99472.75;;;-1.72
61390;BMP280;47260;48.274;19.814;2023-03-03T01:39:49;99470.13;;;-1.72
61390;BMP280;47260;48.274;19.814;2023-03-03T01:41:21;99471.66;;;-1.75
61390;BMP280;47260;48.274;19.814;2023-03-03T01:42:52;99480.00;;;-1.80
61390;BMP280;47260;48.274;19.814;2023-03-03T01:44:24;99475.81;;;-1.77
61390;BMP280;47260;48.274;19.814;2023-03-03T01:47:46;99472.06;;;-1.76
61390;BMP280;47260;48.274;19.814;2023-03-03T01:49:20;99473.94;;;-1.77
61390;BMP280;47260;48.274;19.814;2023-03-03T01:50:53;99471.28;;;-1.73
61390;BMP280;47260;48.274;19.814;2023-03-03T01:52:25;99464.50;;;-1.74
61390;BMP280;47260;48.274;19.814;2023-03-03T01:53:58;99470.13;;;-1.72
61390;BMP280;47260;48.274;19.814;2023-03-03T01:55:33;99470.47;;;-1.70
61390;BMP280;47260;48.274;19.814;2023-03-03T01:57:06;99471.56;;;-1.68
61390;BMP280;47260;48.274;19.814;2023-03-03T01:58:42;99475.38;;;-1.72
61390;BMP280;47260;48.274;19.814;2023-03-03T02:00:14;99461.50;;;-1.73
61390;BMP280;47260;48.274;19.814;2023-03-03T02:01:47;99465.25;;;-1.74
61390;BMP280;47260;48.274;19.814;2023-03-03T02:03:19;99458.13;;;-1.73
61390;BMP280;47260;48.274;19.814;2023-03-03T02:04:51;99460.75;;;-1.73
61390;BMP280;47260;48.274;19.814;2023-03-03T02:06:24;99466.00;;;-1.73
61390;BMP280;47260;48.274;19.814;2023-03-03T02:07:57;99467.88;;;-1.74
61390;BMP280;47260;48.274;19.814;2023-03-03T02:09:31;99463.38;;;-1.73
61390;BMP280;47260;48.274;19.814;2023-03-03T02:11:04;99462.66;;;-1.77
61390;BMP280;47260;48.274;19.814;2023-03-03T02:12:37;99464.28;;;-1.83
61390;BMP280;47260;48.274;19.814;2023-03-03T02:14:10;99459.38;;;-1.85
61390;BMP280;47260;48.274;19.814;2023-03-03T02:15:46;99460.56;;;-1.90
61390;BMP280;47260;48.274;19.814;2023-03-03T02:17:18;99461.72;;;-1.91
61390;BMP280;47260;48.274;19.814;2023-03-03T02:18:49;99466.59;;;-1.93
61390;BMP280;47260;48.274;19.814;2023-03-03T02:20:25;99460.56;;;-1.90
61390;BMP280;47260;48.274;19.814;2023-03-03T02:21:59;99454.53;;;-1.90
61390;BMP280;47260;48.274;19.814;2023-03-03T02:23:33;99458.69;;;-1.89
61390;BMP280;47260;48.274;19.814;2023-03-03T02:25:05;99455.28;;;-1.90
61390;BMP280;47260;48.274;19.814;2023-03-03T02:26:39;99462.06;;;-1.89
61390;BMP280;47260;48.274;19.814;2023-03-03T02:28:12;99452.66;;;-1.90
61390;BMP280;47260;48.274;19.814;2023-03-03T02:29:44;99453.81;;;-1.91
61390;BMP280;47260;48.274;19.814;2023-03-03T02:31:16;99453.41;;;-1.89
61390;BMP280;47260;48.274;19.814;2023-03-03T02:32:47;99451.53;;;-1.89
61390;BMP280;47260;48.274;19.814;2023-03-03T02:34:19;99451.53;;;-1.89
61390;BMP280;47260;48.274;19.814;2023-03-03T02:35:50;99449.66;;;-1.88
61390;BMP280;47260;48.274;19.814;2023-03-03T02:37:23;99444.41;;;-1.88
61390;BMP280;47260;48.274;19.814;2023-03-03T02:38:58;99442.94;;;-1.93
61390;BMP280;47260;48.274;19.814;2023-03-03T02:40:32;99440.69;;;-1.94
61390;BMP280;47260;48.274;19.814;2023-03-03T02:42:06;99444.78;;;-1.90
61390;BMP280;47260;48.274;19.814;2023-03-03T02:43:51;99437.63;;;-1.89
61390;BMP280;47260;48.274;19.814;2023-03-03T02:45:23;99443.31;;;-1.91
61390;BMP280;47260;48.274;19.814;2023-03-03T02:46:55;99433.91;;;-1.92
61390;BMP280;47260;48.274;19.814;2023-03-03T02:48:27;99431.31;;;-1.95
61390;BMP280;47260;48.274;19.814;2023-03-03T02:49:58;99433.94;;;-1.95
61390;BMP280;47260;48.274;19.814;2023-03-03T02:51:30;99434.75;;;-1.98
61390;BMP280;47260;48.274;19.814;2023-03-03T02:53:00;99429.13;;;-2.00
61390;BMP280;47260;48.274;19.814;2023-03-03T02:54:32;99428.78;;;-2.02
61390;BMP280;47260;48.274;19.814;2023-03-03T02:56:06;99426.22;;;-2.06
61390;BMP280;47260;48.274;19.814;2023-03-03T02:57:40;99430.00;;;-2.10
61390;BMP280;47260;48.274;19.814;2023-03-03T02:59:11;99421.03;;;-2.13
61390;BMP280;47260;48.274;19.814;2023-03-03T03:00:48;99428.56;;;-2.15
61390;BMP280;47260;48.274;19.814;2023-03-03T03:02:22;99420.34;;;-2.17
61390;BMP280;47260;48.274;19.814;2023-03-03T03:03:53;99418.47;;;-2.16
61390;BMP280;47260;48.274;19.814;2023-03-03T03:05:26;99409.03;;;-2.14
61390;BMP280;47260;48.274;19.814;2023-03-03T03:06:57;99402.25;;;-2.11
61390;BMP280;47260;48.274;19.814;2023-03-03T03:08:31;99402.25;;;-2.11
61390;BMP280;47260;48.274;19.814;2023-03-03T03:10:04;99399.16;;;-2.06
61390;BMP280;47260;48.274;19.814;2023-03-03T03:11:39;99400.25;;;-2.04
61390;BMP280;47260;48.274;19.814;2023-03-03T03:13:12;99400.25;;;-2.04
61390;BMP280;47260;48.274;19.814;2023-03-03T03:14:45;99394.25;;;-2.04
61390;BMP280;47260;48.274;19.814;2023-03-03T03:16:17;99391.72;;;-2.11
61390;BMP280;47260;48.274;19.814;2023-03-03T03:17:48;99392.84;;;-2.12
61390;BMP280;47260;48.274;19.814;2023-03-03T03:19:19;99394.09;;;-2.20
61390;BMP280;47260;48.274;19.814;2023-03-03T03:20:51;99399.41;;;-2.24
61390;BMP280;47260;48.274;19.814;2023-03-03T03:22:23;99399.78;;;-2.25
61390;BMP280;47260;48.274;19.814;2023-03-03T03:23:55;99394.56;;;-2.29
61390;BMP280;47260;48.274;19.814;2023-03-03T03:25:26;99393.50;;;-2.35
61390;BMP280;47260;48.274;19.814;2023-03-03T03:26:58;99386.06;;;-2.40
61390;BMP280;47260;48.274;19.814;2023-03-03T03:28:32;99395.09;;;-2.41
61390;BMP280;47260;48.274;19.814;2023-03-03T03:30:04;99387.25;;;-2.44
61390;BMP280;47260;48.274;19.814;2023-03-03T03:31:36;99386.16;;;-2.47
61390;BMP280;47260;48.274;19.814;2023-03-03T03:33:08;99383.88;;;-2.45
61390;BMP280;47260;48.274;19.814;2023-03-03T03:34:41;99382.75;;;-2.44
61390;BMP280;47260;48.274;19.814;2023-03-03T03:36:14;99381.25;;;-2.45
61390;BMP280;47260;48.274;19.814;2023-03-03T03:37:46;99378.25;;;-2.47
61390;BMP280;47260;48.274;19.814;2023-03-03T03:39:17;99378.69;;;-2.48
61390;BMP280;47260;48.274;19.814;2023-03-03T03:40:51;99375.66;;;-2.51
61390;BMP280;47260;48.274;19.814;2023-03-03T03:42:23;99371.94;;;-2.53
61390;BMP280;47260;48.274;19.814;2023-03-03T03:43:56;99371.25;;;-2.57
61390;BMP280;47260;48.274;19.814;2023-03-03T03:45:28;99367.94;;;-2.61
61390;BMP280;47260;48.274;19.814;2023-03-03T03:46:59;99373.19;;;-2.61
61390;BMP280;47260;48.274;19.814;2023-03-03T03:48:30;99372.78;;;-2.60
61390;BMP280;47260;48.274;19.814;2023-03-03T03:50:03;99370.91;;;-2.59
61390;BMP280;47260;48.274;19.814;2023-03-03T03:51:34;99371.31;;;-2.61
61390;BMP280;47260;48.274;19.814;2023-03-03T03:53:11;99363.03;;;-2.63
61390;BMP280;47260;48.274;19.814;2023-03-03T03:54:42;99359.31;;;-2.65
61390;BMP280;47260;48.274;19.814;2023-03-03T03:56:14;99367.25;;;-2.69
61390;BMP280;47260;48.274;19.814;2023-03-03T03:57:47;99369.91;;;-2.72
61390;BMP280;47260;48.274;19.814;2023-03-03T03:59:20;99363.56;;;-2.75
61390;BMP280;47260;48.274;19.814;2023-03-03T04:00:52;99362.44;;;-2.74
61390;BMP280;47260;48.274;19.814;2023-03-03T04:02:24;99355.69;;;-2.75
61390;BMP280;47260;48.274;19.814;2023-03-03T04:03:55;99363.97;;;-2.76
61390;BMP280;47260;48.274;19.814;2023-03-03T04:05:28;99357.56;;;-2.75
61390;BMP280;47260;48.274;19.814;2023-03-03T04:06:59;99356.78;;;-2.72
61390;BMP280;47260;48.274;19.814;2023-03-03T04:08:31;99357.88;;;-2.70
61390;BMP280;47260;48.274;19.814;2023-03-03T04:10:02;99364.63;;;-2.69
61390;BMP280;47260;48.274;19.814;2023-03-03T04:11:34;99355.34;;;-2.77
61390;BMP280;47260;48.274;19.814;2023-03-03T04:13:07;99359.91;;;-2.81
61390;BMP280;47260;48.274;19.814;2023-03-03T04:14:40;99364.34;;;-2.78
61390;BMP280;47260;48.274;19.814;2023-03-03T04:16:12;99359.09;;;-2.78
61390;BMP280;47260;48.274;19.814;2023-03-03T04:17:45;99364.75;;;-2.79
61390;BMP280;47260;48.274;19.814;2023-03-03T04:19:17;99364.44;;;-2.85
61390;BMP280;47260;48.274;19.814;2023-03-03T04:20:49;99363.34;;;-2.87
61390;BMP280;47260;48.274;19.814;2023-03-03T04:22:21;99358.84;;;-2.90
61390;BMP280;47260;48.274;19.814;2023-03-03T04:23:53;99364.88;;;-2.93
61390;BMP280;47260;48.274;19.814;2023-03-03T04:25:24;99364.13;;;-2.94
61390;BMP280;47260;48.274;19.814;2023-03-03T04:26:57;99363.03;;;-2.96
61390;BMP280;47260;48.274;19.814;2023-03-03T04:28:30;99358.56;;;-2.99
61390;BMP280;47260;48.274;19.814;2023-03-03T04:30:05;99362.72;;;-3.02
61390;BMP280;47260;48.274;19.814;2023-03-03T04:31:37;99362.72;;;-3.02
61390;BMP280;47260;48.274;19.814;2023-03-03T04:33:11;99359.75;;;-3.08
61390;BMP280;47260;48.274;19.814;2023-03-03T04:34:44;99360.94;;;-3.12
61390;BMP280;47260;48.274;19.814;2023-03-03T04:36:15;99356.47;;;-3.15
61390;BMP280;47260;48.274;19.814;2023-03-03T04:37:47;99354.19;;;-3.13
61390;BMP280;47260;48.274;19.814;2023-03-03T04:39:19;99359.06;;;-3.12
61390;BMP280;47260;48.274;19.814;2023-03-03T04:40:50;99355.00;;;-3.16
61390;BMP280;47260;48.274;19.814;2023-03-03T04:42:22;99356.53;;;-3.22
61390;BMP280;47260;48.274;19.814;2023-03-03T04:43:52;99353.91;;;-3.26
61390;BMP280;47260;48.274;19.814;2023-03-03T04:45:25;99365.94;;;-3.28
61390;BMP280;47260;48.274;19.814;2023-03-03T04:46:56;99371.25;;;-3.32
61390;BMP280;47260;48.274;19.814;2023-03-03T04:48:28;99360.75;;;-3.35
61390;BMP280;47260;48.274;19.814;2023-03-03T04:50:00;99365.25;;;-3.36
61390;BMP280;47260;48.274;19.814;2023-03-03T04:51:34;99364.13;;;-3.35
61390;BMP280;47260;48.274;19.814;2023-03-03T04:53:06;99363.00;;;-3.34
61390;BMP280;47260;48.274;19.814;2023-03-03T04:54:38;99355.50;;;-3.32
61390;BMP280;47260;48.274;19.814;2023-03-03T04:56:10;99352.09;;;-3.29
61390;BMP280;47260;48.274;19.814;2023-03-03T04:57:41;99361.44;;;-3.28
61390;BMP280;47260;48.274;19.814;2023-03-03T04:59:13;99350.56;;;-3.26
61390;BMP280;47260;48.274;19.814;2023-03-03T05:00:46;99353.56;;;-3.28
61390;BMP280;47260;48.274;19.814;2023-03-03T05:02:17;99350.94;;;-3.28
61390;BMP280;47260;48.274;19.814;2023-03-03T05:03:48;99356.63;;;-3.33
61390;BMP280;47260;48.274;19.814;2023-03-03T05:05:20;99348.78;;;-3.36
61390;BMP280;47260;48.274;19.814;2023-03-03T05:06:52;99354.75;;;-3.36
61390;BMP280;47260;48.274;19.814;2023-03-03T05:08:23;99353.31;;;-3.40
61390;BMP280;47260;48.274;19.814;2023-03-03T05:09:55;99355.59;;;-3.42
61390;BMP280;47260;48.274;19.814;2023-03-03T05:11:26;99351.88;;;-3.45
61390;BMP280;47260;48.274;19.814;2023-03-03T05:12:58;99353.72;;;-3.42
61390;BMP280;47260;48.274;19.814;2023-03-03T05:14:28;99352.19;;;-3.39
61390;BMP280;47260;48.274;19.814;2023-03-03T05:16:02;99354.84;;;-3.43
61390;BMP280;47260;48.274;19.814;2023-03-03T05:17:33;99354.84;;;-3.46
61390;BMP280;47260;48.274;19.814;2023-03-03T05:19:04;99354.09;;;-3.47
61390;BMP280;47260;48.274;19.814;2023-03-03T05:20:35;99362.72;;;-3.46
61390;BMP280;47260;48.274;19.814;2023-03-03T05:22:07;99359.34;;;-3.47
61390;BMP280;47260;48.274;19.814;2023-03-03T05:23:37;99354.47;;;-3.45
61390;BMP280;47260;48.274;19.814;2023-03-03T05:25:09;99361.94;;;-3.40
61390;BMP280;47260;48.274;19.814;2023-03-03T05:26:41;99357.03;;;-3.34
61390;BMP280;47260;48.274;19.814;2023-03-03T05:28:13;99361.06;;;-3.26
61390;BMP280;47260;48.274;19.814;2023-03-03T05:29:44;99358.41;;;-3.19
61390;BMP280;47260;48.274;19.814;2023-03-03T05:31:17;99360.53;;;-3.11
61390;BMP280;47260;48.274;19.814;2023-03-03T05:32:49;99359.34;;;-3.02
61390;BMP280;47260;48.274;19.814;2023-03-03T05:34:20;99364.91;;;-2.97
61390;BMP280;47260;48.274;19.814;2023-03-03T05:35:52;99362.59;;;-2.88
61390;BMP280;47260;48.274;19.814;2023-03-03T05:37:23;99362.53;;;-2.81
61390;BMP280;47260;48.274;19.814;2023-03-03T05:38:55;99364.72;;;-2.76
61390;BMP280;47260;48.274;19.814;2023-03-03T05:40:26;99366.91;;;-2.71
61390;BMP280;47260;48.274;19.814;2023-03-03T05:41:58;99377.09;;;-2.76
61390;BMP280;47260;48.274;19.814;2023-03-03T05:43:29;99387.59;;;-2.76
61390;BMP280;47260;48.274;19.814;2023-03-03T05:45:00;99378.56;;;-2.75
61390;BMP280;47260;48.274;19.814;2023-03-03T05:46:33;99379.56;;;-2.62
61390;BMP280;47260;48.274;19.814;2023-03-03T05:48:05;99378.25;;;-2.47
61390;BMP280;47260;48.274;19.814;2023-03-03T05:49:37;99384.41;;;-2.30
61390;BMP280;47260;48.274;19.814;2023-03-03T05:51:08;99393.19;;;-2.10
61390;BMP280;47260;48.274;19.814;2023-03-03T05:52:39;99397.41;;;-1.90
61390;BMP280;47260;48.274;19.814;2023-03-03T05:54:11;99396.69;;;-1.63
61390;BMP280;47260;48.274;19.814;2023-03-03T05:55:42;99396.75;;;-1.44
61390;BMP280;47260;48.274;19.814;2023-03-03T05:57:14;99397.56;;;-1.23
61390;BMP280;47260;48.274;19.814;2023-03-03T05:58:45;99395.97;;;-0.98
61390;BMP280;47260;48.274;19.814;2023-03-03T06:00:17;99389.69;;;-0.65
61390;BMP280;47260;48.274;19.814;2023-03-03T06:01:50;99398.06;;;-0.30
61390;BMP280;47260;48.274;19.814;2023-03-03T06:03:22;99403.69;;;-0.12
61390;BMP280;47260;48.274;19.814;2023-03-03T06:04:53;99405.72;;;0.00
61390;BMP280;47260;48.274;19.814;2023-03-03T06:06:24;99403.41;;;0.34
61390;BMP280;47260;48.274;19.814;2023-03-03T06:07:57;99409.91;;;1.07
61390;BMP280;47260;48.274;19.814;2023-03-03T06:09:28;99411.72;;;2.14
61390;BMP280;47260;48.274;19.814;2023-03-03T06:11:00;99412.47;;;2.61
61390;BMP280;47260;48.274;19.814;2023-03-03T06:12:32;99413.81;;;3.31
61390;BMP280;47260;48.274;19.814;2023-03-03T06:14:03;99425.47;;;4.04
61390;BMP280;47260;48.274;19.814;2023-03-03T06:15:34;99423.63;;;4.77
61390;BMP280;47260;48.274;19.814;2023-03-03T06:17:07;99425.16;;;5.38
61390;BMP280;47260;48.274;19.814;2023-03-03T06:18:39;99421.34;;;5.95
61390;BMP280;47260;48.274;19.814;2023-03-03T06:20:11;99433.34;;;6.38
61390;BMP280;47260;48.274;19.814;2023-03-03T06:21:41;99432.47;;;6.70
61390;BMP280;47260;48.274;19.814;2023-03-03T06:23:13;99434.41;;;6.31
61390;BMP280;47260;48.274;19.814;2023-03-03T06:24:44;99432.22;;;5.74
61390;BMP280;47260;48.274;19.814;2023-03-03T06:26:16;99430.34;;;5.32
61390;BMP280;47260;48.274;19.814;2023-03-03T06:27:46;99437.38;;;4.84
61390;BMP280;47260;48.274;19.814;2023-03-03T06:29:18;99438.50;;;5.11
61390;BMP280;47260;48.274;19.814;2023-03-03T06:30:51;99441.88;;;5.11
61390;BMP280;47260;48.274;19.814;2023-03-03T06:32:24;99443.72;;;4.69
61390;BMP280;47260;48.274;19.814;2023-03-03T06:33:56;99442.66;;;4.30
61390;BMP280;47260;48.274;19.814;2023-03-03T06:35:27;99441.69;;;4.06
61390;BMP280;47260;48.274;19.814;2023-03-03T06:36:59;99437.00;;;4.10
61390;BMP280;47260;48.274;19.814;2023-03-03T06:38:30;99437.88;;;4.07
61390;BMP280;47260;48.274;19.814;2023-03-03T06:40:02;99442.28;;;4.01
61390;BMP280;47260;48.274;19.814;2023-03-03T06:41:34;99445.00;;;3.49
61390;BMP280;47260;48.274;19.814;2023-03-03T06:43:05;99442.84;;;3.96
61390;BMP280;47260;48.274;19.814;2023-03-03T06:44:37;99451.25;;;4.61
61390;BMP280;47260;48.274;19.814;2023-03-03T06:46:08;99446.50;;;5.02
61390;BMP280;47260;48.274;19.814;2023-03-03T06:47:40;99447.28;;;5.44
61390;BMP280;47260;48.274;19.814;2023-03-03T06:49:12;99449.03;;;6.36
61390;BMP280;47260;48.274;19.814;2023-03-03T06:50:43;99445.94;;;7.05
61390;BMP280;47260;48.274;19.814;2023-03-03T06:52:16;99442.56;;;6.52
61390;BMP280;47260;48.274;19.814;2023-03-03T06:53:49;99442.59;;;6.28
61390;BMP280;47260;48.274;19.814;2023-03-03T06:55:22;99446.97;;;6.55
61390;BMP280;47260;48.274;19.814;2023-03-03T06:56:56;99448.50;;;6.85
61390;BMP280;47260;48.274;19.814;2023-03-03T06:58:27;99439.22;;;7.09
61390;BMP280;47260;48.274;19.814;2023-03-03T06:59:59;99443.25;;;7.34
61390;BMP280;47260;48.274;19.814;2023-03-03T07:01:33;99450.91;;;7.61
61390;BMP280;47260;48.274;19.814;2023-03-03T07:03:11;99452.31;;;8.11
61390;BMP280;47260;48.274;19.814;2023-03-03T07:04:43;99464.94;;;7.91
61390;BMP280;47260;48.274;19.814;2023-03-03T07:06:17;99455.97;;;8.54
61390;BMP280;47260;48.274;19.814;2023-03-03T07:07:50;99448.78;;;8.91
61390;BMP280;47260;48.274;19.814;2023-03-03T07:09:24;99443.28;;;9.37
61390;BMP280;47260;48.274;19.814;2023-03-03T07:10:56;99455.88;;;9.26
61390;BMP280;47260;48.274;19.814;2023-03-03T07:12:31;99446.69;;;9.07
61390;BMP280;47260;48.274;19.814;2023-03-03T07:14:04;99453.50;;;8.76
61390;BMP280;47260;48.274;19.814;2023-03-03T07:15:36;99445.94;;;9.74
61390;BMP280;47260;48.274;19.814;2023-03-03T07:17:09;99453.44;;;10.29
61390;BMP280;47260;48.274;19.814;2023-03-03T07:18:47;99450.91;;;9.92
61390;BMP280;47260;48.274;19.814;2023-03-03T07:20:21;99442.94;;;10.14
61390;BMP280;47260;48.274;19.814;2023-03-03T07:21:53;99449.44;;;9.97
61390;BMP280;47260;48.274;19.814;2023-03-03T07:23:25;99449.25;;;10.06
61390;BMP280;47260;48.274;19.814;2023-03-03T07:24:58;99454.22;;;10.46
61390;BMP280;47260;48.274;19.814;2023-03-03T07:26:30;99450.38;;;10.74
61390;BMP280;47260;48.274;19.814;2023-03-03T07:28:07;99454.25;;;11.07
61390;BMP280;47260;48.274;19.814;2023-03-03T07:29:42;99461.59;;;10.67
61390;BMP280;47260;48.274;19.814;2023-03-03T07:31:21;99456.44;;;10.47
61390;BMP280;47260;48.274;19.814;2023-03-03T07:32:56;99463.31;;;10.65
61390;BMP280;47260;48.274;19.814;2023-03-03T07:34:35;99463.78;;;10.58
61390;BMP280;47260;48.274;19.814;2023-03-03T07:36:17;99454.94;;;10.41
61390;BMP280;47260;48.274;19.814;2023-03-03T07:37:50;99463.31;;;10.65
61390;BMP280;47260;48.274;19.814;2023-03-03T07:39:27;99457.69;;;10.74
61390;BMP280;47260;48.274;19.814;2023-03-03T07:41:00;99456.34;;;10.20
61390;BMP280;47260;48.274;19.814;2023-03-03T07:42:34;99449.00;;;9.56
61390;BMP280;47260;48.274;19.814;2023-03-03T07:44:20;99444.72;;;9.33
61390;BMP280;47260;48.274;19.814;2023-03-03T07:45:53;99454.47;;;9.05
61390;BMP280;47260;48.274;19.814;2023-03-03T07:47:26;99452.44;;;8.63
61390;BMP280;47260;48.274;19.814;2023-03-03T07:48:57;99448.66;;;9.37
61390;BMP280;47260;48.274;19.814;2023-03-03T07:50:30;99449.00;;;10.09
61390;BMP280;47260;48.274;19.814;2023-03-03T07:52:16;99446.19;;;10.35
61390;BMP280;47260;48.274;19.814;2023-03-03T07:53:49;99452.09;;;10.83
61390;BMP280;47260;48.274;19.814;2023-03-03T07:55:26;99461.09;;;10.63
61390;BMP280;47260;48.274;19.814;2023-03-03T07:57:01;99457.66;;;10.52
61390;BMP280;47260;48.274;19.814;2023-03-03T07:58:37;99466.31;;;10.14
61390;BMP280;47260;48.274;19.814;2023-03-03T08:01:56;99462.56;;;9.89
61390;BMP280;47260;48.274;19.814;2023-03-03T08:03:29;99462.44;;;10.15
61390;BMP280;47260;48.274;19.814;2023-03-03T08:05:01;99459.09;;;9.77
61390;BMP280;47260;48.274;19.814;2023-03-03T08:06:50;99459.75;;;10.09
61390;BMP280;47260;48.274;19.814;2023-03-03T08:08:26;99457.00;;;10.90
61390;BMP280;47260;48.274;19.814;2023-03-03T08:09:59;99457.16;;;11.42
61390;BMP280;47260;48.274;19.814;2023-03-03T08:11:31;99457.31;;;12.29
61390;BMP280;47260;48.274;19.814;2023-03-03T08:13:08;99457.38;;;13.12
61390;BMP280;47260;48.274;19.814;2023-03-03T08:14:43;99460.50;;;11.70
61390;BMP280;47260;48.274;19.814;2023-03-03T08:16:23;99448.91;;;11.97
61390;BMP280;47260;48.274;19.814;2023-03-03T08:17:55;99447.44;;;10.78
61390;BMP280;47260;48.274;19.814;2023-03-03T08:19:27;99453.97;;;10.38
61390;BMP280;47260;48.274;19.814;2023-03-03T08:21:00;99449.16;;;11.20
61390;BMP280;47260;48.274;19.814;2023-03-03T08:22:33;99447.16;;;11.26
61390;BMP280;47260;48.274;19.814;2023-03-03T08:24:05;99453.25;;;11.37
61390;BMP280;47260;48.274;19.814;2023-03-03T08:25:36;99457.28;;;11.82
61390;BMP280;47260;48.274;19.814;2023-03-03T08:27:07;99452.00;;;12.53
61390;BMP280;47260;48.274;19.814;2023-03-03T08:28:38;99449.72;;;12.27
61390;BMP280;47260;48.274;19.814;2023-03-03T08:30:10;99453.28;;;11.43
61390;BMP280;47260;48.274;19.814;2023-03-03T08:31:42;99448.78;;;12.19
61390;BMP280;47260;48.274;19.814;2023-03-03T08:33:13;99450.38;;;12.39
61390;BMP280;47260;48.274;19.814;2023-03-03T08:34:45;99454.81;;;12.36
61390;BMP280;47260;48.274;19.814;2023-03-03T08:36:17;99455.00;;;12.44
61390;BMP280;47260;48.274;19.814;2023-03-03T08:37:50;99444.59;;;11.77
61390;BMP280;47260;48.274;19.814;2023-03-03T08:39:21;99451.78;;;11.47
61390;BMP280;47260;48.274;19.814;2023-03-03T08:40:53;99448.03;;;12.24
61390;BMP280;47260;48.274;19.814;2023-03-03T08:42:24;99445.88;;;12.52
61390;BMP280;47260;48.274;19.814;2023-03-03T08:43:56;99445.56;;;12.61
61390;BMP280;47260;48.274;19.814;2023-03-03T08:45:27;99451.66;;;12.67
61390;BMP280;47260;48.274;19.814;2023-03-03T08:46:59;99447.78;;;12.93
61390;BMP280;47260;48.274;19.814;2023-03-03T08:48:30;99438.81;;;13.33
61390;BMP280;47260;48.274;19.814;2023-03-03T08:50:02;99440.03;;;14.12
61390;BMP280;47260;48.274;19.814;2023-03-03T08:51:34;99434.44;;;14.10